Burlington, VT

10:14 PM EDT on September 02, 2014 (GMT -0400)
Lakeside Ave | Change Station
CLOSE
Current Station
Personal Weather Station
Location: BURLINGTON, VT
Elevation: 112 ft
Nearby Weather Stations

Elev 112 ft 44.46 °N, 73.22 °W | Updated 1 minute ago

Rain
Rain Mist
66.1 °F
Feels Like 66.1 °F
N
16.0
Wind Variable Wind from East
Gusts 16.0 mph

Today
High -- | Low -- °F
--% Chance of Precip.
Yesterday
High -- | Low -- °F
Precip. -- in
6:16 AM 7:27 PM
First Quarter, 57% visible
Pressure 29.78 in
Visibility 5.0 miles
Clouds Overcast 1900 ft
Dew Point 66 °F
Humidity 100%
Rainfall 0.02 in
Snow Depth Not available.
UV 0 out of 12
Pollen 5.20 out of 12
Ozone Good
PM2.5 Good
Flu Activity Not available.
METAR KBTV 030154Z 04006KT 5SM RA BR OVC019 19/17 A2978 RMK AO2 SLP083 P0018 T01940172

More Conditions Fewer Conditions

Pressure 29.78 in
Visibility 5.0 miles
Clouds Overcast 1900 ft
Dew Point 66 °F
Humidity 100%
Rainfall 0.02 in
Snow Depth Not available.
UV 0 out of 12
Pollen 5.20 out of 12
Ozone Good
PM2.5 Good
Flu Activity Not available.
METAR KBTV 030154Z 04006KT 5SM RA BR OVC019 19/17 A2978 RMK AO2 SLP083 P0018 T01940172

More Conditions Fewer Conditions

10-Day Weather Forecast

Almanac

Astronomy

Sep. 02, 2014 Rise Set
Actual Time 6:16 AM EDT 7:27 PM EDT
Civil Twilight 5:46 AM EDT 7:57 PM EDT
Nautical Twilight 5:10 AM EDT 8:33 PM EDT
Astronomical Twilight 4:32 AM EDT 9:11 PM EDT
Moon 2:14 PM EDT (9/2) No Moon Set
Length of Visible Light 14h 10m
Length of Day
13h 10m
Tomorrow will be 2m 59s shorter.
First Quarter, 57% of the Moon is Illuminated
Today
First Quarter
Sep 8
Full
Sep 15
Last Quarter
Sep 24
New
Oct 1
First Quarter

Today's Extremes

State Highs State Lows

Community

WunderPhotos

Upload Photos

1,749,841 photos uploaded!

Nearby

Air Quality

  Air Quality AQ Index Pollutant
Yesterday Good
OZONE
Yesterday Good
PM2.5
Current Good
PM2.5
Current Good
OZONE
Tuesday Moderate
PM2.5
Wednesday Good
PM2.5
Wednesday Good
OZONE
Thursday Good
PM2.5
Thursday Good
OZONE

Snow Depth

Station Depth Elevation
No new snow has been reported.

Earthquake Activity

City Distance Mag. Time & Date
No recent earthquake activity has been reported nearby.
Minimum magnitude displayed is 2.5.

Coastal Water Temperatures

Place Temperature
No Stations Reporting

Nearby Weather Stations